Date,TemperatureHighF,TemperatureAvgF,TemperatureLowF,DewpointHighF,DewpointAvgF,DewpointLowF,HumidityHigh,HumidityAvg,HumidityLow,PressureMaxIn,PressureMinIn,WindSpeedMaxMPH,WindSpeedAvgMPH,GustSpeedMaxMPH,PrecipitationSumIn
2013-1-2,45,42,38,7,-2,-12,22,16,10,0.00,40.00,6,4,12,0.00
2013-1-3,43,38,33,8,-3,-13,31,18,10,0.00,40.00,5,3,8,0.00
2013-1-4,43,37,32,26,13,-9,78,40,14,0.00,40.00,4,2,7,0.00
2013-1-5,37,33,27,28,23,12,82,67,44,0.00,40.00,16,7,28,0.00
2013-1-6,27,24,22,23,20,12,94,85,51,0.00,40.00,6,2,12,0.00
2013-1-7,43,33,23,28,21,7,84,61,31,0.00,40.00,11,4,23,0.00
2013-1-8,53,45,37,26,22,2,61,41,16,0.00,40.00,5,3,11,0.00
2013-1-9,45,34,15,26,19,-10,95,61,9,0.00,40.00,19,9,29,0.00
2013-1-10,19,13,9,17,10,6,91,90,88,0.00,40.00,3,2,8,0.00
2013-1-11,16,12,7,13,9,4,90,89,87,0.00,40.00,7,2,10,0.00
2013-1-12,22,14,6,12,2,-15,87,61,27,0.00,40.00,8,2,14,0.00
2013-1-13,24,14,8,-3,-11,-21,50,31,17,0.00,40.00,7,3,19,0.00
2013-1-14,28,11,7,20,-9,-13,70,41,30,0.00,40.00,7,5,22,0.00
2013-1-15,48,42,35,17,12,5,41,31,17,0.00,40.00,12,7,25,0.00
2013-1-16,47,43,39,9,-7,-19,28,12,6,0.00,40.00,11,9,21,0.00
2013-1-17,54,47,43,-7,-15,-23,8,7,5,0.00,40.00,10,5,18,0.00
2013-1-18,52,48,44,7,-13,-26,17,8,4,0.00,40.00,5,2,9,0.00
2013-1-19,52,46,41,15,-6,-23,34,13,5,0.00,40.00,7,3,12,0.00
2013-1-20,47,43,39,-1,-8,-21,18,11,6,0.00,40.00,10,5,17,0.00
2013-1-21,54,48,42,16,-1,-16,27,14,7,0.00,40.00,7,5,12,0.00
2013-1-22,49,46,40,16,2,-7,36,17,9,0.00,40.00,10,4,22,0.00
2013-1-23,40,36,31,31,9,-6,94,39,14,0.00,40.00,15,9,25,0.00
2013-1-24,38,36,33,35,34,31,97,91,80,0.00,40.00,9,4,21,0.00
2013-1-25,38,35,34,37,34,33,97,97,93,0.00,40.00,6,3,11,0.00
2013-1-26,35,31,23,33,29,22,97,95,83,0.00,40.00,11,4,20,0.00
2013-1-27,23,18,14,21,16,10,95,92,84,0.00,40.00,7,2,15,0.00
2013-1-28,28,19,13,15,11,8,85,71,52,0.00,40.00,4,1,14,0.00
2013-1-29,34,34,34,25,25,25,68,68,68,0.00,40.00,3,3,10,0.00
2013-1-31,50,45,40,12,5,0,26,19,16,0.00,40.00,5,2,8,0.00
2013-2-1,42,42,42,13,13,13,31,31,31,0.00,40.00,3,3,4,0.00
2013-2-2,44,41,38,15,1,-20,34,21,6,0.00,40.00,5,3,9,0.00
2013-2-3,44,38,34,16,9,-1,47,31,19,0.00,40.00,8,4,14,0.00
2013-2-4,50,41,36,28,13,2,62,34,20,0.00,40.00,8,2,13,0.00
2013-2-5,40,34,26,26,16,4,96,50,26,0.00,40.00,11,5,18,0.00
2013-2-6,41,31,24,24,4,-22,71,35,9,0.00,40.00,9,2,13,0.00
2013-2-7,29,22,15,21,10,-10,94,69,19,0.00,40.00,9,4,17,0.00
2013-2-8,23,16,13,15,11,8,91,80,59,0.00,40.00,6,2,12,0.00
2013-2-9,32,21,14,19,8,-2,82,59,24,0.00,40.00,7,4,15,0.00
2013-2-10,28,23,18,13,10,6,72,57,42,0.00,40.00,8,5,22,0.00
2013-2-11,38,26,17,10,5,-2,62,42,27,0.00,40.00,7,4,18,0.00
2013-2-12,42,33,25,23,12,2,62,42,29,0.00,40.00,7,3,14,0.00
2013-2-13,42,36,32,20,18,13,57,47,39,0.00,40.00,8,4,19,0.00
2013-2-14,45,36,32,20,15,3,56,42,23,0.00,40.00,10,6,20,0.00
2013-2-15,52,44,38,22,11,-3,43,27,14,0.00,40.00,10,4,19,0.00
2013-2-16,45,39,32,25,10,-9,70,34,11,0.00,40.00,5,2,10,0.00
2013-2-17,42,35,30,24,15,5,71,45,30,0.00,40.00,3,2,8,0.00
2013-2-18,37,31,25,24,18,12,96,62,40,0.00,40.00,11,4,22,0.00
2013-2-19,25,18,12,24,16,10,96,92,83,0.00,40.00,12,6,24,0.00
2013-2-20,30,20,16,21,15,4,95,81,34,0.00,40.00,8,4,19,0.00
2013-2-21,29,21,16,21,13,4,94,74,33,0.00,40.00,11,3,21,0.00
2013-2-22,43,30,23,24,16,7,88,59,25,0.00,40.00,4,2,8,0.00
2013-2-23,27,22,16,25,17,5,96,82,58,0.00,40.00,7,4,21,0.00
2013-2-24,40,30,16,9,2,-10,62,33,14,0.00,40.00,8,4,21,0.00
2013-2-25,37,30,25,22,11,-6,85,47,21,0.00,40.00,4,2,12,0.00
2013-2-26,42,33,26,7,-6,-24,41,19,9,0.00,40.00,6,4,15,0.00
2013-2-27,42,35,30,19,6,-11,60,32,14,0.00,40.00,4,2,11,0.00
2013-2-28,45,37,30,29,22,6,74,56,35,0.00,40.00,5,2,9,0.00
2013-3-1,52,44,39,33,26,19,69,50,30,0.00,40.00,7,3,11,0.00
2013-3-2,48,42,35,27,20,15,72,43,32,0.00,40.00,12,6,22,0.00
2013-3-3,35,30,27,31,29,26,97,96,72,0.00,40.00,12,5,21,0.00
2013-3-4,44,32,25,35,28,22,97,84,58,0.00,40.00,9,2,17,0.00
2013-3-5,36,31,26,30,27,22,97,86,67,0.00,40.00,20,14,36,0.00
2013-3-6,26,22,18,25,20,16,96,94,92,0.00,40.00,18,10,36,0.00
2013-3-7,25,22,21,24,21,19,95,94,93,0.00,40.00,6,2,11,0.00
2013-3-8,33,24,19,26,21,18,95,88,65,0.00,40.00,7,1,11,0.00
2013-3-9,36,28,21,21,14,1,94,60,28,0.00,40.00,10,3,22,0.00
2013-3-10,52,40,27,27,7,-7,49,27,12,0.00,40.00,8,4,14,0.00
2013-3-11,54,48,40,29,17,-1,54,32,15,0.00,40.00,5,2,8,0.00
2013-3-12,57,49,42,37,26,14,68,44,24,0.00,40.00,4,2,10,0.00
2013-3-13,58,48,45,35,25,9,64,41,20,0.00,40.00,7,4,15,0.00
2013-3-14,55,50,47,23,17,7,32,26,18,0.00,40.00,10,6,21,0.00
2013-3-15,52,46,43,25,20,11,43,36,26,0.00,40.00,4,2,8,0.00
2013-3-16,47,41,32,28,16,-11,78,41,10,0.00,40.00,5,2,11,0.00
2013-3-17,46,37,31,30,20,3,79,55,20,0.00,40.00,3,2,9,0.00
2013-3-18,45,38,33,30,12,2,76,36,23,0.00,40.00,5,2,13,0.00
2013-3-19,43,35,30,32,27,14,97,74,41,0.00,40.00,6,4,10,0.00
2013-3-20,32,31,29,31,30,29,97,97,97,0.00,40.00,11,6,19,0.00
2013-3-21,38,34,31,33,30,24,96,86,76,0.00,40.00,4,2,8,0.00
2013-3-22,41,34,29,24,6,-19,76,35,10,0.00,40.00,9,3,17,0.00
2013-3-23,45,37,31,20,2,-24,56,26,7,0.00,40.00,4,2,13,0.00
2013-3-24,48,40,33,29,21,15,70,48,37,0.00,40.00,3,2,10,0.00
2013-3-25,48,40,34,33,12,-3,88,34,14,0.00,40.00,7,4,12,0.00
2013-3-26,38,34,31,32,26,13,97,74,45,0.00,40.00,10,3,18,0.00
2013-3-27,43,35,31,34,31,28,97,87,66,0.00,40.00,9,4,15,0.00
2013-3-28,41,34,32,34,31,27,97,88,67,0.00,40.00,9,5,17,0.00
2013-3-29,51,40,33,37,28,23,83,64,37,0.00,40.00,5,3,10,0.00
2013-3-30,52,43,38,35,30,24,89,60,40,0.00,40.00,7,4,13,0.00
2013-3-31,41,32,29,33,30,27,97,91,74,0.00,40.00,9,4,21,0.00
2013-4-1,33,30,28,31,29,27,97,96,93,0.00,40.00,6,2,12,0.00
2013-4-2,47,38,29,38,30,24,93,74,47,0.00,40.00,4,2,7,0.00
2013-4-3,53,45,39,38,27,8,79,51,17,0.00,40.00,7,3,11,0.00
2013-4-4,37,34,32,36,34,32,97,97,96,0.00,40.00,13,8,28,0.00
2013-4-5,41,34,29,33,30,28,98,88,69,0.00,40.00,5,3,12,0.00
2013-4-6,41,35,32,33,32,31,97,90,67,0.00,40.00,5,3,11,0.00
2013-4-7,41,33,26,33,30,25,97,91,67,0.00,40.00,6,4,18,0.00
2013-4-8,30,25,22,25,20,14,96,81,56,0.00,40.00,7,3,20,0.00
2013-4-9,39,30,22,15,9,1,67,45,22,0.00,40.00,11,6,32,0.00
2013-4-10,56,44,35,34,21,8,64,39,28,0.00,40.00,9,4,22,0.00
2013-4-11,44,42,40,37,26,22,76,53,44,0.00,40.00,6,4,12,0.00
2013-4-12,54,45,39,38,27,14,81,51,27,0.00,40.00,6,3,13,0.00
2013-4-13,49,43,37,36,31,24,87,63,46,0.00,40.00,7,3,13,0.00
2013-4-14,44,37,30,33,27,21,96,69,39,0.00,40.00,6,3,15,0.00
2013-4-15,30,26,19,29,24,18,97,92,72,0.00,40.00,9,4,18,0.00
2013-4-16,27,22,18,18,15,10,93,75,49,0.00,40.00,6,3,17,0.00
2013-4-17,33,24,16,14,8,3,82,54,30,0.00,40.00,8,5,17,0.00
2013-4-18,48,38,27,28,12,-3,67,36,21,0.00,40.00,12,5,26,0.00
2013-4-19,49,40,38,31,22,14,70,48,35,0.00,40.00,4,2,10,0.00
2013-4-20,57,45,36,33,26,13,69,51,21,0.00,40.00,5,2,11,0.00
2013-4-21,59,51,44,36,28,10,59,43,21,0.00,40.00,4,2,11,0.00
2013-4-22,59,50,40,38,28,18,56,44,25,0.00,40.00,5,2,11,0.00
2013-4-23,59,44,33,30,15,1,53,32,14,0.00,40.00,15,7,24,0.00
2013-4-24,50,42,37,21,9,3,41,26,20,0.00,40.00,10,7,20,0.00
2013-4-25,54,47,43,28,17,4,54,31,20,0.00,40.00,7,3,14,0.00
2013-4-26,59,52,46,36,24,12,45,33,17,0.00,40.00,5,2,10,0.00
2013-4-27,62,55,50,34,27,21,55,35,24,0.00,40.00,7,2,13,0.00
2013-4-28,63,56,48,41,21,-8,64,31,8,0.00,40.00,3,2,11,0.00
2013-4-29,63,56,47,38,33,27,60,42,33,0.00,40.00,5,3,11,0.00
2013-4-30,57,49,39,41,32,1,69,53,19,0.00,40.00,9,3,18,0.00
2013-5-1,52,43,34,7,-1,-7,19,15,12,0.00,40.00,17,11,31,0.00
2013-5-2,57,49,44,15,2,-7,19,14,11,0.00,40.00,8,6,17,0.00
2013-5-3,63,57,51,34,28,9,42,34,18,0.00,40.00,7,3,14,0.00
2013-5-4,56,49,42,26,17,9,52,29,18,0.00,40.00,9,6,17,0.00
2013-5-5,50,43,36,37,31,22,96,64,39,0.00,40.00,9,5,17,0.00
2013-5-6,36,33,31,35,32,30,96,94,88,0.00,40.00,4,1,7,0.00
2013-5-7,36,34,31,34,32,31,97,94,87,0.00,40.00,2,1,6,0.00
2013-5-8,43,38,32,41,37,32,97,95,88,0.00,40.00,4,2,8,0.00
2013-5-9,53,46,38,46,40,32,96,79,56,0.00,40.00,5,3,10,0.00
2013-5-10,62,56,47,48,38,30,86,53,30,0.00,40.00,5,3,13,0.00
2013-5-11,65,57,52,44,37,29,65,48,32,0.00,40.00,3,2,11,0.00
2013-5-12,65,61,54,36,32,27,41,33,26,0.00,40.00,4,3,12,0.00
2013-5-13,65,58,54,34,28,21,44,32,26,0.00,40.00,8,4,18,0.00
2013-5-14,62,53,48,45,37,27,80,57,27,0.00,40.00,7,2,16,0.00
2013-5-15,58,52,42,35,27,20,72,41,24,0.00,40.00,6,4,15,0.00
2013-5-17,46,40,34,36,32,30,88,73,61,0.00,40.00,4,2,12,0.00
2013-5-18,52,44,37,33,21,-9,75,44,11,0.00,40.00,3,2,11,0.00
2013-5-19,58,45,37,37,26,11,75,51,15,0.00,40.00,9,4,17,0.00
2013-5-20,62,49,40,31,21,14,48,34,18,0.00,40.00,11,5,23,0.00
2013-5-21,54,47,36,34,25,14,52,42,27,0.00,40.00,9,5,19,0.00
2013-5-22,43,36,29,28,20,12,82,55,30,0.00,40.00,8,4,13,0.00
2013-5-23,43,34,27,26,18,9,75,53,31,0.00,40.00,7,4,14,0.00
2013-5-24,51,44,37,29,18,-6,58,37,11,0.00,40.00,5,3,16,0.00
2013-5-25,51,42,37,33,24,6,77,49,23,0.00,40.00,8,4,17,0.00
2013-5-26,50,42,36,36,28,21,88,60,44,0.00,40.00,7,4,14,0.00
2013-5-27,46,40,35,38,29,18,96,69,37,0.00,40.00,8,4,13,0.00
2013-5-28,47,40,36,41,38,34,97,92,75,0.00,40.00,5,2,14,0.00
2013-5-29,49,42,35,41,37,33,96,85,69,0.00,40.00,7,3,11,0.00
2013-5-30,56,49,42,37,28,12,72,46,24,0.00,40.00,4,3,11,0.00
2013-5-31,67,56,48,41,16,-22,43,23,4,0.00,40.00,6,3,11,0.00
2013-6-1,66,59,55,40,26,13,51,31,18,0.00,40.00,6,3,12,0.00
2013-6-2,65,59,54,38,34,30,51,40,30,0.00,40.00,8,4,14,0.00
2013-6-3,67,59,52,46,36,30,65,44,28,0.00,40.00,7,4,16,0.00
2013-6-4,70,62,58,48,33,22,60,36,24,0.00,40.00,5,3,9,0.00
2013-6-5,72,65,59,51,38,24,59,38,22,0.00,40.00,8,3,17,0.00
2013-6-6,72,65,62,41,35,24,44,34,22,0.00,40.00,5,2,17,0.00
2013-6-7,73,68,64,30,21,12,24,17,11,0.00,40.00,4,2,10,0.00
2013-6-8,72,68,65,54,35,14,58,31,12,0.00,40.00,8,4,16,0.00
2013-6-9,77,67,59,56,43,29,78,47,23,0.00,40.00,6,2,11,0.00
2013-6-10,60,55,50,52,42,24,79,61,35,0.00,40.00,5,2,12,0.00
2013-6-11,61,53,46,39,34,24,58,48,39,0.00,40.00,11,6,19,0.00
2013-6-12,61,54,44,42,32,20,60,45,29,0.00,40.00,12,7,24,0.00
2013-6-13,56,49,41,27,11,-12,46,23,9,0.00,40.00,7,4,12,0.00
2013-6-14,61,52,43,35,23,7,46,32,15,0.00,40.00,9,5,17,0.00
2013-6-15,60,52,48,30,23,18,48,32,23,0.00,40.00,7,3,11,0.00
2013-6-16,62,55,48,33,26,15,50,34,20,0.00,40.00,6,3,13,0.00
2013-6-17,61,54,46,35,30,19,65,41,22,0.00,40.00,4,3,11,0.00
2013-6-18,54,47,36,34,27,19,76,47,35,0.00,40.00,11,6,21,0.00
2013-6-19,50,41,33,29,18,7,68,41,25,0.00,40.00,8,4,13,0.00
2013-6-20,52,46,40,24,16,0,52,31,17,0.00,40.00,5,2,10,0.00
2013-6-22,62,57,51,35,32,26,48,38,31,0.00,40.00,5,3,12,0.00
2013-6-23,56,49,41,43,34,27,93,59,38,0.00,40.00,9,4,17,0.00
2013-6-24,42,41,39,41,40,38,97,95,88,0.00,40.00,12,6,19,0.00
2013-6-25,47,44,43,47,43,42,97,97,97,0.00,40.00,10,7,18,0.00
2013-6-26,61,54,47,54,50,45,97,86,72,0.00,40.00,11,5,20,0.00
2013-6-27,70,62,55,56,49,38,80,62,42,0.00,40.00,4,3,9,0.00
2013-6-28,75,70,62,53,48,40,60,45,33,0.00,40.00,6,2,10,0.00
2013-6-29,75,69,62,48,45,40,57,43,28,0.00,40.00,4,2,10,0.00
2013-6-30,73,69,66,50,47,42,51,45,38,0.00,40.00,5,3,11,0.00
2013-7-1,72,70,67,43,39,35,42,33,26,0.00,40.00,6,4,10,0.00
2013-7-2,79,72,68,53,42,36,52,35,28,0.00,40.00,9,5,20,0.00
2013-7-3,78,69,64,57,48,38,66,49,34,0.00,40.00,7,4,13,0.00
2013-7-4,76,70,64,52,48,42,61,45,36,0.00,40.00,7,3,14,0.00
2013-7-5,72,66,61,47,40,29,60,40,22,0.00,40.00,13,9,26,0.00
2013-7-6,68,61,58,40,35,28,47,37,28,0.00,40.00,12,6,23,0.00
2013-7-7,70,63,58,42,33,25,52,33,26,0.00,40.00,9,6,18,0.00
2013-7-8,70,63,57,37,30,16,47,30,18,0.00,40.00,9,6,19,0.00
2013-7-9,70,65,59,32,28,16,33,26,18,0.00,40.00,6,3,13,0.00
2013-7-10,70,63,59,35,30,24,36,29,24,0.00,40.00,8,5,20,0.00
2013-7-11,66,60,55,40,34,30,46,38,29,0.00,40.00,10,6,20,0.00
2013-7-12,67,59,54,39,33,27,45,38,25,0.00,40.00,6,4,11,0.00
2013-7-13,65,60,55,35,34,33,44,39,31,0.00,40.00,4,3,10,0.00
2013-7-14,70,62,56,39,33,23,46,34,26,0.00,40.00,5,3,12,0.00
2013-7-15,69,62,58,41,36,31,48,38,34,0.00,40.00,4,2,10,0.00
2013-7-16,65,58,53,40,32,25,59,38,30,0.00,40.00,8,4,16,0.00
2013-7-17,67,58,53,41,34,20,53,42,26,0.00,40.00,5,3,11,0.00
2013-7-18,72,70,69,40,39,38,33,32,32,0.00,40.00,2,2,7,0.00
2013-7-19,76,70,67,46,41,23,48,36,17,0.00,40.00,2,2,6,0.00
2013-7-20,80,77,68,46,41,30,30,28,25,0.00,40.00,3,2,9,0.00
2013-7-21,67,67,67,48,48,48,51,51,51,0.00,40.00,1,1,4,0.00
2013-7-22,74,66,58,46,41,38,65,41,30,0.00,40.00,10,2,20,0.00
2013-7-23,64,61,58,47,42,38,65,50,38,0.00,40.00,10,2,20,0.00
2013-7-24,71,64,57,48,44,41,60,49,41,0.00,40.00,5,2,9,0.00
2013-7-25,73,67,63,51,44,37,47,43,38,0.00,40.00,5,2,11,0.00
2013-7-26,74,68,61,51,46,40,55,47,38,0.00,40.00,3,2,9,0.00
2013-7-27,73,66,58,44,41,34,55,40,30,0.00,40.00,4,2,11,0.00
2013-7-28,70,63,57,42,39,34,54,42,28,0.00,40.00,4,2,9,0.00
2013-7-29,68,60,56,36,33,28,46,37,27,0.00,40.00,9,5,15,0.00
2013-7-30,67,59,54,38,35,32,50,41,27,0.00,40.00,10,4,15,0.00
2013-7-31,66,61,53,39,35,23,49,39,26,0.00,40.00,4,2,11,0.00
2013-8-1,63,55,49,26,23,18,40,29,20,0.00,40.00,6,3,16,0.00
2013-8-2,65,60,52,31,26,20,43,30,18,0.00,40.00,4,3,11,0.00
2013-8-3,67,58,53,35,32,26,47,37,28,0.00,40.00,4,2,12,0.00
2013-8-4,68,58,55,35,31,24,45,37,26,0.00,40.00,5,3,9,0.00
2013-8-5,69,60,57,36,32,23,44,36,22,0.00,40.00,4,2,12,0.00
2013-8-6,69,61,53,36,33,25,48,36,23,0.00,40.00,4,2,11,0.00
2013-8-7,61,54,49,40,36,31,68,52,42,0.00,40.00,4,2,11,0.00
2013-8-8,58,50,47,37,35,34,69,57,43,0.00,40.00,3,2,8,0.00
2013-8-9,62,55,47,40,34,27,62,47,29,0.00,40.00,5,3,12,0.00
2013-8-10,61,52,45,37,30,23,66,45,30,0.00,40.00,6,3,12,0.00
2013-8-11,63,53,49,35,29,24,57,40,26,0.00,40.00,3,2,9,0.00
2013-8-12,66,56,54,36,34,30,49,44,33,0.00,40.00,5,2,14,0.00
2013-8-13,69,58,55,32,26,20,38,31,18,0.00,40.00,4,2,9,0.00
2013-8-14,63,60,58,32,25,15,36,27,18,0.00,40.00,4,2,7,0.00
2013-8-15,71,54,56,30,3,-100,30,18,12,0.00,40.00,8,4,22,0.00
2013-8-16,71,59,55,30,17,-100,31,22,14,0.00,40.00,7,2,11,0.00
2013-8-17,74,64,58,36,31,25,38,30,22,0.00,40.00,6,2,13,0.00
2013-8-18,76,67,61,39,34,30,36,30,22,0.00,40.00,7,3,13,0.00
2013-8-19,70,66,64,43,38,31,45,35,24,0.00,40.00,7,3,13,0.00
2013-8-20,73,63,61,42,34,-100,47,38,28,0.00,40.00,6,3,13,0.00
2013-8-21,70,62,58,45,41,40,55,46,34,0.00,40.00,9,5,18,0.00
2013-8-22,67,60,54,41,37,32,54,43,30,0.00,40.00,16,5,29,0.00
2013-8-23,65,57,53,36,30,24,51,35,29,0.00,40.00,8,4,17,0.00
2013-8-24,63,55,50,37,30,23,63,40,24,0.00,40.00,9,5,15,0.00
2013-8-25,59,54,49,42,38,28,75,56,41,0.00,40.00,10,5,18,0.00
2013-8-26,64,57,50,43,37,28,64,49,36,0.00,40.00,12,6,22,0.00
2013-8-27,63,55,53,34,26,23,38,32,26,0.00,40.00,8,3,13,0.00
2013-8-28,64,59,55,48,43,39,71,57,41,0.00,40.00,8,4,18,0.00
2013-8-29,68,59,53,40,37,31,58,45,27,0.00,40.00,8,5,18,0.00
2013-8-30,63,62,59,35,33,30,39,34,30,0.00,40.00,4,3,9,0.00
2013-8-31,73,64,59,36,30,20,42,27,20,0.00,40.00,5,2,11,0.00
2013-9-1,68,60,54,47,38,20,76,47,21,0.00,40.00,4,2,9,0.00
2013-9-2,64,57,53,50,48,46,84,71,59,0.00,40.00,13,6,21,0.00
2013-9-3,66,57,54,49,46,41,73,66,53,0.00,40.00,10,6,19,0.00
2013-9-4,67,59,55,46,44,40,64,57,46,0.00,40.00,8,5,17,0.00
2013-9-5,64,57,52,45,41,36,70,56,38,0.00,40.00,10,7,26,0.00
2013-9-6,69,59,52,38,36,28,57,43,32,0.00,40.00,9,5,16,0.00
2013-9-7,71,62,56,38,32,26,50,34,22,0.00,40.00,7,3,15,0.00
2013-9-8,72,68,58,31,30,29,35,24,22,0.00,40.00,4,3,11,0.00
2013-9-9,73,66,60,35,30,24,37,26,18,0.00,40.00,5,3,11,0.00
2013-9-10,74,63,58,36,29,23,42,28,17,0.00,40.00,7,4,15,0.00
2013-9-11,67,59,57,38,36,34,47,41,29,0.00,40.00,2,1,7,0.00
2013-9-12,65,59,56,43,41,36,60,52,34,0.00,40.00,3,2,5,0.00
2013-9-13,66,61,57,46,41,35,55,48,37,0.00,40.00,4,2,9,0.00
2013-9-14,73,63,58,44,40,35,59,42,31,0.00,40.00,4,2,12,0.00
2013-9-15,68,60,55,39,36,30,52,41,28,0.00,40.00,11,6,22,0.00
2013-9-16,57,54,50,39,32,30,66,43,38,0.00,40.00,11,9,19,0.00
2013-9-17,56,48,41,41,34,23,75,58,31,0.00,40.00,13,6,24,0.00
2013-9-18,52,52,52,21,21,21,29,29,29,0.00,40.00,6,6,12,0.00
2013-9-19,68,58,51,31,24,18,40,28,17,0.00,40.00,7,4,13,0.00
2013-9-20,62,53,41,37,25,15,78,37,21,0.00,40.00,11,6,28,0.00
2013-9-21,42,37,29,38,33,28,97,86,67,0.00,40.00,12,7,31,0.00
2013-9-22,45,32,29,34,30,28,97,91,60,0.00,40.00,1,0,3,0.00
2013-9-23,61,50,44,39,30,19,66,47,26,0.00,40.00,4,2,11,0.00
2013-9-24,54,46,35,41,32,20,95,63,32,0.00,40.00,9,5,15,0.00
2013-9-25,38,33,28,33,28,24,97,85,62,0.00,40.00,7,3,13,0.00
2013-9-26,40,32,27,22,20,17,77,61,40,0.00,40.00,10,5,19,0.00
2013-9-27,52,42,31,28,22,17,68,47,30,0.00,40.00,6,3,12,0.00
2013-9-28,55,49,42,29,25,13,47,40,27,0.00,40.00,8,3,13,0.00
2013-9-29,54,46,41,32,24,13,66,44,27,0.00,40.00,10,5,22,0.00
2013-9-30,52,44,40,34,31,26,78,60,38,0.00,40.00,10,4,16,0.00
2013-10-1,54,48,46,42,36,26,80,63,44,0.00,40.00,4,2,9,0.00
2013-10-2,51,45,38,36,28,19,78,53,34,0.00,40.00,5,3,13,0.00
2013-10-3,46,38,32,23,17,8,58,42,34,0.00,40.00,8,4,19,0.00
2013-10-4,49,38,31,13,8,3,47,31,16,0.00,40.00,16,10,30,0.00
2013-10-5,62,57,50,23,19,13,30,23,16,0.00,40.00,6,2,11,0.00
2013-10-6,62,53,47,19,14,3,33,22,12,0.00,40.00,5,2,8,0.00
2013-10-7,58,50,44,19,13,2,31,23,13,0.00,40.00,4,2,9,0.00
2013-10-8,53,44,37,23,15,7,55,31,22,0.00,40.00,4,2,11,0.00
2013-10-9,39,36,32,27,23,16,71,60,41,0.00,40.00,6,3,15,0.00
2013-10-10,46,38,33,33,28,23,92,67,44,0.00,40.00,5,2,13,0.00
2013-10-11,50,41,35,32,25,18,79,54,36,0.00,40.00,4,2,11,0.00
2013-10-12,49,40,34,31,27,22,80,61,39,0.00,40.00,5,3,12,0.00
2013-10-13,46,36,31,30,27,23,96,71,43,0.00,40.00,7,4,14,0.00
2013-10-14,53,43,32,25,16,3,73,35,19,0.00,40.00,7,3,16,0.00
2013-10-15,50,45,39,20,15,12,46,30,25,0.00,40.00,8,6,16,0.00
2013-10-16,55,46,41,25,19,3,52,35,18,0.00,40.00,8,3,14,0.00
2013-10-17,56,48,42,24,18,2,47,31,15,0.00,40.00,6,2,15,0.00
2013-10-18,62,52,44,25,14,-1,39,23,10,0.00,40.00,6,2,13,0.00
2013-10-19,61,53,47,22,18,11,33,26,14,0.00,40.00,5,2,12,0.00
2013-10-20,64,55,49,27,16,6,33,22,14,0.00,40.00,6,3,12,0.00
2013-10-21,63,54,49,23,14,8,29,21,13,0.00,40.00,9,4,16,0.00
2013-10-22,62,54,50,17,7,0,25,15,12,0.00,40.00,3,1,9,0.00
2013-10-23,62,54,49,18,14,11,29,21,14,0.00,40.00,5,2,9,0.00
2013-10-24,59,52,48,16,12,9,28,20,16,0.00,40.00,4,2,9,0.00
2013-10-25,59,53,47,18,12,6,26,19,14,0.00,40.00,3,2,9,0.00
2013-10-26,61,52,48,20,12,8,29,20,13,0.00,40.00,6,4,11,0.00
2013-10-27,53,44,26,29,17,8,96,39,18,0.00,40.00,15,5,27,0.00
2013-10-28,29,25,24,28,22,-100,96,95,94,0.00,40.00,8,3,17,0.00
2013-10-29,30,26,25,29,25,23,96,95,94,0.00,40.00,6,2,10,0.00
2013-10-30,40,31,24,36,25,17,95,82,43,0.00,40.00,6,2,9,0.00
2013-10-31,52,46,37,24,20,8,47,35,27,0.00,40.00,6,4,11,0.00
2013-11-1,57,51,47,27,20,12,42,30,21,0.00,40.00,4,2,9,0.00
2013-11-2,50,43,37,27,20,14,58,41,26,0.00,40.00,6,3,12,0.00
2013-11-3,42,36,32,34,30,22,95,79,55,0.00,40.00,5,2,12,0.00
2013-11-4,36,30,25,26,14,5,77,52,30,0.00,40.00,7,4,14,0.00
2013-11-5,49,37,28,20,10,5,42,33,23,0.00,40.00,12,7,18,0.00
2013-11-6,54,48,44,30,25,18,52,40,32,0.00,40.00,4,2,7,0.00
2013-11-7,51,45,40,21,14,6,38,28,21,0.00,40.00,7,4,15,0.00
2013-11-8,52,45,40,27,18,5,55,35,22,0.00,40.00,5,3,13,0.00
2013-11-9,53,47,43,24,20,15,42,34,30,0.00,40.00,6,3,13,0.00
2013-11-10,45,45,45,17,17,17,31,31,31,0.00,40.00,5,5,13,0.00
2013-11-12,52,48,46,25,21,17,44,35,26,0.00,40.00,7,3,13,0.00
2013-11-13,57,48,43,32,28,20,61,46,34,0.00,40.00,8,3,14,0.00
2013-11-14,51,44,35,27,22,14,69,42,30,0.00,40.00,4,2,10,0.00
2013-11-15,41,35,32,31,26,22,92,72,48,0.00,40.00,5,2,11,0.00
2013-11-16,39,33,29,29,26,19,97,76,47,0.00,40.00,5,2,10,0.00
2013-11-17,47,40,34,32,21,13,68,48,35,0.00,40.00,4,2,8,0.00
2013-11-18,43,37,32,31,28,22,93,71,42,0.00,40.00,10,5,20,0.00
2013-11-19,35,32,30,34,31,29,97,96,94,0.00,40.00,6,4,12,0.00
2013-11-20,33,31,30,32,30,29,97,97,97,0.00,40.00,3,0,6,0.00
2013-11-21,30,23,18,29,20,12,97,87,68,0.00,40.00,15,6,36,0.00
2013-11-22,29,24,21,12,5,-1,68,43,28,0.00,40.00,16,14,39,0.00
2013-11-23,35,29,25,11,5,1,40,35,30,0.00,40.00,8,5,21,0.00
2013-11-24,40,34,27,25,11,5,54,38,30,0.00,40.00,5,3,11,0.00
2013-11-25,52,47,42,30,21,12,58,37,21,0.00,40.00,6,3,10,0.00
2013-11-26,46,46,46,14,14,14,27,27,27,0.00,40.00,4,4,7,0.00
2013-11-27,45,40,35,24,20,15,62,46,37,0.00,40.00,5,3,12,0.00
2013-11-28,42,36,33,28,23,18,79,60,43,0.00,40.00,5,2,11,0.00
2013-11-29,44,36,34,29,22,14,78,57,36,0.00,40.00,6,2,10,0.00
2013-11-30,45,39,35,28,20,14,61,46,34,0.00,40.00,7,2,10,0.00
2013-12-1,52,44,39,25,18,13,41,36,29,0.00,40.00,4,2,7,0.00
2013-12-2,45,40,32,27,16,8,81,42,25,0.00,40.00,5,3,14,0.00
2013-12-3,32,22,9,30,20,5,96,91,81,0.00,40.00,5,3,18,0.00
2013-12-4,21,12,7,12,5,1,92,76,46,0.00,40.00,10,4,19,0.00
2013-12-5,21,14,10,10,7,3,90,74,50,0.00,40.00,2,1,6,0.00
2013-12-6,20,14,12,12,-2,-17,90,52,21,0.00,40.00,13,5,20,0.00
2013-12-7,15,11,8,13,9,5,91,89,87,0.00,40.00,10,4,24,0.00
2013-12-8,22,12,5,19,4,-10,86,74,35,0.00,40.00,7,3,13,0.00
2013-12-9,34,26,16,3,1,-5,54,36,24,0.00,40.00,7,5,19,0.00
2013-12-10,43,40,38,13,11,9,32,30,29,0.00,40.00,2,1,5,0.00
2013-12-11,45,38,33,13,7,4,34,28,20,0.00,40.00,5,3,8,0.00
2013-12-12,43,36,31,10,7,-1,35,29,20,0.00,40.00,4,3,8,0.00
2013-12-13,44,35,30,16,8,-8,48,32,18,0.00,40.00,6,3,13,0.00
2013-12-14,52,45,41,2,-3,-6,14,13,13,0.00,40.00,8,4,15,0.00
2013-12-15,51,50,49,7,-3,-5,17,11,10,0.00,40.00,1,1,1,0.00
2013-12-16,51,50,48,7,5,3,17,16,14,0.00,40.00,5,3,9,0.00
2013-12-17,51,50,48,13,11,10,24,21,19,0.00,40.00,7,4,10,0.00
2013-12-18,47,41,29,28,20,10,70,45,22,0.00,40.00,9,4,16,0.00
2013-12-19,29,23,17,24,16,4,91,74,50,0.00,40.00,11,6,23,0.00
2013-12-20,36,33,19,26,21,4,71,61,50,0.00,40.00,8,4,10,0.00
2013-12-21,37,34,32,27,20,11,79,57,36,0.00,40.00,6,3,11,0.00
2013-12-22,43,38,32,26,21,11,66,51,36,0.00,40.00,6,4,21,0.00
2013-12-23,49,42,38,26,20,6,54,41,20,0.00,40.00,4,2,9,0.00
2013-12-24,44,42,40,20,15,6,44,34,20,0.00,40.00,3,3,5,0.00
2013-12-25,54,49,46,10,6,2,21,17,14,0.00,40.00,4,1,6,0.00
2013-12-26,48,48,47,15,14,13,27,26,24,0.00,40.00,4,2,5,0.00
2013-12-27,49,44,39,1,-4,-12,17,13,10,0.00,40.00,3,2,7,0.00
2013-12-28,42,36,30,11,2,-10,44,25,12,0.00,40.00,14,7,21,0.00
2013-12-29,52,47,40,9,1,-13,21,15,10,0.00,40.00,6,3,11,0.00
2013-12-30,50,44,41,15,8,-7,33,23,12,0.00,40.00,5,2,9,0.00
2013-12-31,48,44,41,4,-4,-10,17,14,11,0.00,40.00,4,2,9,0.00
2014-1-1,51,46,42,23,21,16,45,37,24,0.00,40.00,6,3,8,0.00
2014-1-2,51,44,41,23,16,10,40,33,26,0.00,40.00,4,2,8,0.00